createdAt,value
2023-03-21T00:00:42.074Z,10.30
2023-03-21T00:03:20.989Z,10.70
2023-03-21T00:05:52.047Z,10.60
2023-03-21T00:08:20.856Z,11.20
2023-03-21T00:10:54.748Z,10.70
2023-03-21T00:13:22.891Z,10.40
2023-03-21T00:16:06.033Z,10.80
2023-03-21T00:18:42.473Z,10.30
2023-03-21T00:24:00.664Z,10.10
2023-03-21T00:26:28.993Z,10.20
2023-03-21T00:28:57.081Z,10.70
2023-03-21T00:31:25.189Z,9.90
2023-03-21T00:33:53.248Z,11.10
2023-03-21T00:36:21.796Z,10.00
2023-03-21T00:38:49.949Z,12.50
2023-03-21T00:41:31.674Z,12.90
2023-03-21T00:44:06.337Z,11.10
2023-03-21T00:46:43.947Z,11.70
2023-03-21T00:49:15.307Z,14.00
2023-03-21T00:51:43.838Z,13.40
2023-03-21T00:54:12.546Z,13.30
2023-03-21T00:56:45.808Z,12.00
2023-03-21T00:59:14.032Z,12.90
2023-03-21T01:01:42.140Z,12.80
2023-03-21T01:04:14.560Z,11.50
2023-03-21T01:06:43.211Z,11.80
2023-03-21T01:09:16.680Z,11.50
2023-03-21T01:11:45.266Z,12.00
2023-03-21T01:14:22.645Z,13.00
2023-03-21T01:16:52.096Z,17.20
2023-03-21T01:19:27.487Z,13.70
2023-03-21T01:21:59.534Z,13.60
2023-03-21T01:24:27.705Z,21.30
2023-03-21T01:26:56.321Z,20.40
2023-03-21T01:29:24.404Z,16.20
2023-03-21T01:31:52.521Z,15.80
2023-03-21T01:34:20.761Z,18.70
2023-03-21T01:36:48.823Z,25.30
2023-03-21T01:39:20.242Z,24.00
2023-03-21T01:41:50.306Z,13.60
2023-03-21T01:44:23.898Z,13.50
2023-03-21T01:47:09.250Z,14.50
2023-03-21T01:49:52.762Z,16.40
2023-03-21T01:52:41.928Z,13.20
2023-03-21T01:55:19.780Z,13.50
2023-03-21T01:58:11.272Z,12.90
2023-03-21T02:00:47.419Z,12.10
2023-03-21T02:03:35.068Z,11.80
2023-03-21T02:06:52.786Z,11.40
2023-03-21T02:09:32.596Z,14.10
2023-03-21T02:12:01.105Z,12.60
2023-03-21T02:14:31.892Z,11.50
2023-03-21T02:17:05.725Z,11.20
2023-03-21T02:19:52.737Z,11.10
2023-03-21T02:22:32.638Z,12.30
2023-03-21T02:25:22.108Z,10.90
2023-03-21T02:27:57.343Z,11.10
2023-03-21T02:30:51.979Z,10.40
2023-03-21T02:33:38.307Z,10.70
2023-03-21T02:36:18.612Z,10.50
2023-03-21T02:39:14.797Z,9.90
2023-03-21T02:41:49.051Z,10.10
2023-03-21T02:44:23.788Z,10.60
2023-03-21T02:47:04.986Z,9.30
2023-03-21T02:49:45.512Z,9.70
2023-03-21T02:52:31.769Z,9.40
2023-03-21T02:55:24.855Z,8.40
2023-03-21T02:58:11.773Z,9.10
2023-03-21T03:00:43.437Z,8.50
2023-03-21T03:03:18.112Z,9.60
2023-03-21T03:05:55.971Z,9.40
2023-03-21T03:08:50.139Z,9.70
2023-03-21T03:11:35.876Z,9.00
2023-03-21T03:14:35.901Z,9.60
2023-03-21T03:17:10.598Z,9.10
2023-03-21T03:20:16.559Z,8.90
2023-03-21T03:23:07.506Z,9.60
2023-03-21T03:26:16.354Z,9.70
2023-03-21T03:28:50.916Z,10.20
2023-03-21T03:31:27.005Z,11.70
2023-03-21T03:34:02.360Z,12.00
2023-03-21T03:36:34.311Z,10.50
2023-03-21T03:39:09.075Z,9.10
2023-03-21T03:42:05.929Z,8.90
2023-03-21T03:44:33.896Z,8.40
2023-03-21T03:47:26.229Z,8.20
2023-03-21T03:50:05.929Z,7.80
2023-03-21T03:52:40.040Z,9.30
2023-03-21T03:55:12.583Z,12.10
2023-03-21T03:57:41.928Z,14.20
2023-03-21T04:00:13.339Z,13.00
2023-03-21T04:02:49.272Z,12.30
2023-03-21T04:05:21.486Z,16.80
2023-03-21T04:07:52.598Z,16.10
2023-03-21T04:12:55.146Z,13.20
2023-03-21T04:15:31.359Z,16.50
2023-03-21T04:18:04.909Z,16.60
2023-03-21T04:20:37.204Z,15.00
2023-03-21T04:23:11.505Z,14.70
2023-03-21T04:25:44.767Z,10.40
2023-03-21T04:28:16.147Z,9.30
2023-03-21T04:31:05.144Z,9.70
2023-03-21T04:33:44.284Z,9.80
2023-03-21T04:36:24.946Z,9.40
2023-03-21T04:38:53.790Z,9.60
2023-03-21T04:41:21.964Z,9.20
2023-03-21T04:43:52.325Z,10.20
2023-03-21T04:46:20.806Z,14.10
2023-03-21T04:48:50.739Z,11.30
2023-03-21T04:51:18.788Z,10.60
2023-03-21T04:53:49.363Z,12.00
2023-03-21T04:56:17.657Z,12.60
2023-03-21T04:58:45.717Z,11.20
2023-03-21T05:01:20.199Z,12.80
2023-03-21T05:03:49.018Z,9.90
2023-03-21T05:06:17.123Z,9.40
2023-03-21T05:08:45.266Z,9.30
2023-03-21T05:11:13.540Z,9.00
2023-03-21T05:13:41.716Z,9.20
2023-03-21T05:16:10.020Z,10.10
2023-03-21T05:18:38.916Z,9.10
2023-03-21T05:21:18.183Z,8.30
2023-03-21T05:23:56.776Z,9.80
2023-03-21T05:26:25.028Z,10.20
2023-03-21T05:29:07.778Z,10.20
2023-03-21T05:31:36.566Z,10.90
2023-03-21T05:34:07.997Z,11.70
2023-03-21T05:36:36.311Z,12.00
2023-03-21T05:39:06.093Z,12.00
2023-03-21T05:41:35.895Z,11.80
2023-03-21T05:44:05.084Z,12.00
2023-03-21T05:46:33.165Z,11.80
2023-03-21T05:49:01.854Z,15.60
2023-03-21T05:51:29.962Z,14.70
2023-03-21T05:53:58.099Z,13.30
2023-03-21T05:56:26.693Z,11.00
2023-03-21T05:59:02.027Z,10.60
2023-03-21T06:01:31.061Z,11.00
2023-03-21T06:04:09.709Z,11.60
2023-03-21T06:06:37.879Z,10.80
2023-03-21T06:09:06.791Z,10.50
2023-03-21T06:11:36.523Z,10.00
2023-03-21T06:14:24.056Z,10.40
2023-03-21T06:17:15.945Z,10.90
2023-03-21T06:19:49.965Z,10.30
2023-03-21T06:22:23.459Z,10.40
2023-03-21T06:24:51.492Z,10.80
2023-03-21T06:27:19.592Z,9.30
2023-03-21T06:29:53.559Z,8.00
2023-03-21T06:32:21.930Z,11.30
2023-03-21T06:34:53.068Z,11.50
2023-03-21T06:37:21.200Z,9.70
2023-03-21T06:39:49.283Z,8.30
2023-03-21T06:42:17.339Z,7.70
2023-03-21T06:44:46.139Z,7.90
2023-03-21T06:47:15.813Z,8.10
2023-03-21T06:49:44.828Z,8.40
2023-03-21T06:52:14.078Z,7.70
2023-03-21T06:54:42.417Z,7.90
2023-03-21T06:57:13.530Z,8.40
2023-03-21T06:59:42.083Z,7.60
2023-03-21T07:02:14.543Z,7.90
2023-03-21T07:04:47.931Z,9.10
2023-03-21T07:07:20.287Z,9.20
2023-03-21T07:09:48.559Z,8.40
2023-03-21T07:12:17.535Z,9.50
2023-03-21T07:15:04.693Z,9.30
2023-03-21T07:17:33.249Z,9.50
2023-03-21T07:20:01.912Z,9.20
2023-03-21T07:22:29.861Z,10.50
2023-03-21T07:25:04.821Z,9.80
2023-03-21T07:27:40.868Z,10.70
2023-03-21T07:30:10.354Z,10.40
2023-03-21T07:32:38.524Z,10.10
2023-03-21T07:35:08.225Z,9.70
2023-03-21T07:37:38.106Z,10.90
2023-03-21T07:40:10.655Z,10.50
2023-03-21T07:42:40.346Z,10.20
2023-03-21T07:45:09.536Z,10.90
2023-03-21T07:47:37.715Z,9.90
2023-03-21T07:50:06.325Z,10.20
2023-03-21T07:52:34.716Z,10.40
2023-03-21T07:55:02.658Z,10.50
2023-03-21T07:57:30.911Z,9.90
2023-03-21T07:59:59.043Z,11.20
2023-03-21T08:02:27.487Z,10.10
2023-03-21T08:04:56.412Z,10.70
2023-03-21T08:07:24.558Z,11.00
2023-03-21T08:09:52.664Z,10.20
2023-03-21T08:12:20.752Z,10.90
2023-03-21T08:14:48.872Z,10.60
2023-03-21T08:17:16.889Z,11.10
2023-03-21T08:19:45.620Z,11.80
2023-03-21T08:22:13.800Z,11.00
2023-03-21T08:24:41.929Z,10.40
2023-03-21T08:27:10.012Z,10.70
2023-03-21T08:29:40.636Z,10.50
2023-03-21T08:32:08.880Z,11.50
2023-03-21T08:34:37.307Z,9.50
2023-03-21T08:37:05.522Z,12.00
2023-03-21T08:39:33.544Z,10.90
2023-03-21T08:42:01.553Z,10.50
2023-03-21T08:44:29.703Z,10.10
2023-03-21T08:46:57.725Z,10.00
2023-03-21T08:49:27.106Z,9.80
2023-03-21T08:51:57.980Z,10.50
2023-03-21T08:54:26.125Z,9.60
2023-03-21T08:56:54.292Z,9.50
2023-03-21T08:59:22.260Z,9.70
2023-03-21T09:01:51.700Z,9.50
2023-03-21T09:04:25.927Z,8.90
2023-03-21T09:06:56.331Z,8.20
2023-03-21T09:09:24.460Z,8.70
2023-03-21T09:11:52.692Z,8.00
2023-03-21T09:14:23.863Z,7.90
2023-03-21T09:16:56.353Z,9.10
2023-03-21T09:19:24.411Z,8.90
2023-03-21T09:21:53.936Z,10.40
2023-03-21T09:24:22.087Z,9.40
2023-03-21T09:26:51.779Z,10.50
2023-03-21T09:29:21.535Z,10.70
2023-03-21T09:31:49.878Z,10.00
2023-03-21T09:34:18.132Z,11.20
2023-03-21T09:36:48.512Z,12.00
2023-03-21T09:39:19.256Z,10.80
2023-03-21T09:42:05.367Z,10.30
2023-03-21T09:44:37.885Z,10.70
2023-03-21T09:47:21.680Z,10.60
2023-03-21T09:49:56.642Z,10.10
2023-03-21T09:52:30.700Z,11.10
2023-03-21T09:54:59.794Z,11.20
2023-03-21T09:57:41.515Z,11.50
2023-03-21T10:00:25.751Z,12.70
2023-03-21T10:02:57.502Z,12.00
2023-03-21T10:05:28.220Z,11.20
2023-03-21T10:08:04.811Z,10.30
2023-03-21T10:10:54.675Z,11.20
2023-03-21T10:13:28.316Z,10.70
2023-03-21T10:16:00.960Z,11.80
2023-03-21T10:18:30.379Z,11.50
2023-03-21T10:20:58.454Z,11.10
2023-03-21T10:23:28.012Z,11.50
2023-03-21T10:26:01.192Z,13.10
2023-03-21T10:28:39.411Z,11.10
2023-03-21T10:31:16.373Z,13.40
2023-03-21T10:33:46.268Z,11.60
2023-03-21T10:36:22.804Z,11.40
2023-03-21T10:39:12.088Z,12.60
2023-03-21T10:41:40.374Z,10.50
2023-03-21T10:44:16.765Z,12.90
2023-03-21T10:46:52.833Z,11.40
2023-03-21T10:49:21.740Z,11.30
2023-03-21T10:51:51.076Z,12.00
2023-03-21T10:54:21.372Z,11.00
2023-03-21T10:57:08.253Z,11.00
2023-03-21T10:59:44.364Z,10.70
2023-03-21T11:02:18.348Z,11.40
2023-03-21T11:04:47.006Z,11.60
2023-03-21T11:07:15.287Z,12.00
2023-03-21T11:09:45.055Z,11.70
2023-03-21T11:12:15.880Z,11.10
2023-03-21T11:14:48.375Z,11.50
2023-03-21T11:17:28.314Z,11.60
2023-03-21T11:20:01.136Z,11.00
2023-03-21T11:22:30.533Z,11.10
2023-03-21T11:25:02.066Z,10.70
2023-03-21T11:27:30.434Z,10.90
2023-03-21T11:29:59.985Z,11.90
2023-03-21T11:32:35.946Z,11.40
2023-03-21T11:35:16.286Z,10.40
2023-03-21T11:37:47.720Z,10.20
2023-03-21T11:40:26.215Z,9.90
2023-03-21T11:42:59.971Z,10.10
2023-03-21T11:45:29.578Z,10.90
2023-03-21T11:47:58.701Z,10.60
2023-03-21T11:50:47.509Z,10.40
2023-03-21T11:53:27.215Z,9.90
2023-03-21T11:56:10.607Z,10.40
2023-03-21T11:59:04.157Z,9.90
2023-03-21T12:01:54.889Z,10.00
2023-03-21T12:04:42.796Z,9.60
2023-03-21T12:07:21.347Z,9.60
2023-03-21T12:09:55.449Z,11.10
2023-03-21T12:12:39.211Z,11.40
2023-03-21T12:15:13.414Z,10.50
2023-03-21T12:18:18.965Z,11.10
2023-03-21T12:21:04.116Z,9.60
2023-03-21T12:23:43.694Z,9.60
2023-03-21T12:26:11.639Z,10.20
2023-03-21T12:28:49.462Z,9.00
2023-03-21T12:31:21.188Z,8.80
2023-03-21T12:34:01.542Z,8.50
2023-03-21T12:36:37.520Z,8.00
2023-03-21T12:39:44.016Z,9.30
2023-03-21T12:42:43.150Z,8.50
2023-03-21T12:45:20.505Z,6.00
2023-03-21T12:48:00.758Z,5.00
2023-03-21T12:50:32.974Z,5.30
2023-03-21T12:53:17.940Z,6.00
2023-03-21T12:55:46.065Z,4.90
2023-03-21T12:58:19.058Z,5.30
2023-03-21T13:00:53.808Z,6.20
2023-03-21T13:03:46.508Z,6.60
2023-03-21T13:06:14.998Z,7.70
2023-03-21T13:08:50.356Z,7.10
2023-03-21T13:11:22.064Z,5.40
2023-03-21T13:14:02.178Z,6.40
2023-03-21T13:16:36.145Z,3.30
2023-03-21T13:19:21.500Z,3.70
2023-03-21T13:22:34.096Z,7.90
2023-03-21T13:25:21.968Z,6.40
2023-03-21T13:28:04.469Z,5.30
2023-03-21T13:30:32.686Z,5.50
2023-03-21T13:33:07.046Z,4.60
2023-03-21T13:35:38.556Z,4.70
2023-03-21T13:38:16.427Z,4.80
2023-03-21T13:40:49.099Z,4.10
2023-03-21T13:43:38.985Z,4.60
2023-03-21T13:46:08.290Z,5.40
2023-03-21T13:48:58.584Z,5.20
2023-03-21T13:51:36.447Z,5.00
2023-03-21T13:56:56.923Z,4.70
2023-03-21T13:59:41.427Z,5.60
2023-03-21T14:02:12.778Z,5.60
2023-03-21T14:04:53.955Z,6.20
2023-03-21T14:07:30.533Z,6.70
2023-03-21T14:10:20.561Z,7.30
2023-03-21T14:12:48.607Z,7.70
2023-03-21T14:15:43.747Z,7.30
2023-03-21T14:18:28.264Z,7.90
2023-03-21T14:21:05.061Z,6.90
2023-03-21T14:23:33.442Z,5.30
2023-03-21T14:26:01.600Z,4.90
2023-03-21T14:28:30.359Z,4.60
2023-03-21T14:31:00.295Z,5.70
2023-03-21T14:33:33.315Z,6.80
2023-03-21T14:36:11.782Z,7.40
2023-03-21T14:38:40.341Z,7.60
2023-03-21T14:41:27.962Z,7.70
2023-03-21T14:44:14.452Z,6.90
2023-03-21T14:46:43.355Z,5.40
2023-03-21T14:49:19.930Z,4.80
2023-03-21T14:51:48.128Z,4.70
2023-03-21T14:54:17.843Z,3.80
2023-03-21T14:56:48.187Z,4.00
2023-03-21T14:59:17.867Z,3.40
2023-03-21T15:01:46.343Z,2.90
2023-03-21T15:04:14.648Z,2.90
2023-03-21T15:06:53.850Z,3.40
2023-03-21T15:09:23.871Z,2.60
2023-03-21T15:11:52.146Z,2.70
2023-03-21T15:14:26.773Z,3.00
2023-03-21T15:16:54.847Z,2.60
2023-03-21T15:19:29.567Z,2.50
2023-03-21T15:22:01.268Z,3.80
2023-03-21T15:24:34.584Z,3.10
2023-03-21T15:27:07.408Z,3.10
2023-03-21T15:29:37.019Z,3.30
2023-03-21T15:32:11.793Z,3.40
2023-03-21T15:34:39.908Z,3.10
2023-03-21T15:37:09.180Z,3.60
2023-03-21T15:39:37.193Z,4.10
2023-03-21T15:42:27.160Z,3.90
2023-03-21T15:44:58.145Z,4.60
2023-03-21T15:47:49.704Z,4.90
2023-03-21T15:50:39.140Z,5.50
2023-03-21T15:53:14.905Z,5.70
2023-03-21T15:55:50.036Z,5.90
2023-03-21T15:58:20.602Z,5.80
2023-03-21T16:00:55.962Z,5.80
2023-03-21T16:03:28.750Z,5.50
2023-03-21T16:06:27.447Z,5.60
2023-03-21T16:09:04.320Z,5.70
2023-03-21T16:11:41.620Z,6.20
2023-03-21T16:14:09.757Z,5.30
2023-03-21T16:16:37.901Z,6.20
2023-03-21T16:19:07.345Z,5.30
2023-03-21T16:21:38.248Z,5.40
2023-03-21T16:24:06.952Z,5.60
2023-03-21T16:26:43.630Z,5.50
2023-03-21T16:29:13.080Z,5.80
2023-03-21T16:31:41.493Z,5.50
2023-03-21T16:34:10.778Z,6.00
2023-03-21T16:36:40.368Z,6.90
2023-03-21T16:39:27.022Z,8.00
2023-03-21T16:41:55.113Z,7.80
2023-03-21T16:44:23.181Z,6.80
2023-03-21T16:46:51.216Z,6.10
2023-03-21T16:49:26.885Z,5.90
2023-03-21T16:51:55.858Z,6.10
2023-03-21T16:54:23.990Z,6.10
2023-03-21T16:56:53.654Z,6.80
2023-03-21T16:59:21.854Z,6.90
2023-03-21T17:01:49.938Z,7.30
2023-03-21T17:04:18.307Z,6.80
2023-03-21T17:06:50.809Z,7.20
2023-03-21T17:09:21.277Z,6.40
2023-03-21T17:11:49.623Z,7.10
2023-03-21T17:14:18.757Z,6.90
2023-03-21T17:16:47.109Z,6.80
2023-03-21T17:19:19.903Z,6.20
2023-03-21T17:21:48.149Z,6.80
2023-03-21T17:24:16.912Z,6.70
2023-03-21T17:26:45.397Z,8.70
2023-03-21T17:29:13.989Z,8.90
2023-03-21T17:31:42.680Z,9.70
2023-03-21T17:34:11.187Z,11.20
2023-03-21T17:36:40.697Z,10.00
2023-03-21T17:39:12.846Z,12.20
2023-03-21T17:41:41.404Z,17.40
2023-03-21T17:44:09.565Z,10.60
2023-03-21T17:46:37.801Z,9.30
2023-03-21T17:49:06.246Z,9.30
2023-03-21T17:51:34.248Z,9.20
2023-03-21T17:54:02.478Z,9.00
2023-03-21T17:56:31.288Z,9.70
2023-03-21T17:59:00.556Z,14.10
2023-03-21T18:01:30.943Z,10.40
2023-03-21T18:03:59.564Z,10.40
2023-03-21T18:06:28.164Z,10.30
2023-03-21T18:08:56.354Z,9.90
2023-03-21T18:11:24.720Z,12.30
2023-03-21T18:14:06.595Z,16.50
2023-03-21T18:16:38.357Z,13.80
2023-03-21T18:19:06.508Z,13.00
2023-03-21T18:21:36.083Z,11.60
2023-03-21T18:24:04.561Z,12.10
2023-03-21T18:26:32.577Z,12.80
2023-03-21T18:29:57.032Z,10.20
2023-03-21T18:32:04.493Z,10.80
2023-03-21T18:34:34.361Z,10.80
2023-03-21T18:37:04.167Z,11.60
2023-03-21T18:39:33.240Z,12.10
2023-03-21T18:42:02.597Z,12.30
2023-03-21T18:44:37.631Z,12.20
2023-03-21T18:47:07.107Z,12.60
2023-03-21T18:50:10.599Z,12.60
2023-03-21T18:52:23.678Z,11.80
2023-03-21T18:54:53.356Z,15.80
2023-03-21T18:57:38.721Z,16.90
2023-03-21T19:00:13.063Z,15.70
2023-03-21T19:02:46.966Z,16.90
2023-03-21T19:05:20.331Z,18.00
2023-03-21T19:07:49.215Z,15.90
2023-03-21T19:10:20.015Z,15.90
2023-03-21T19:12:52.550Z,14.50
2023-03-21T19:15:21.853Z,16.30
2023-03-21T19:20:43.421Z,18.10
2023-03-21T19:23:11.796Z,16.30
2023-03-21T19:25:40.005Z,15.50
2023-03-21T19:28:08.306Z,14.10
2023-03-21T19:30:36.784Z,13.00
2023-03-21T19:33:05.284Z,14.30
2023-03-21T19:35:37.345Z,12.60
2023-03-21T19:38:05.586Z,13.40
2023-03-21T19:40:33.974Z,13.50
2023-03-21T19:43:29.909Z,12.70
2023-03-21T19:45:53.468Z,13.40
2023-03-21T19:48:23.471Z,12.10
2023-03-21T19:51:24.267Z,12.30
2023-03-21T19:53:47.045Z,12.00
2023-03-21T19:56:22.386Z,12.20
2023-03-21T19:58:52.522Z,14.30
2023-03-21T20:01:21.229Z,13.10
2023-03-21T20:03:49.598Z,12.60
2023-03-21T20:06:22.713Z,12.80
2023-03-21T20:09:33.947Z,11.90
2023-03-21T20:11:44.622Z,13.10
2023-03-21T20:14:16.122Z,11.50
2023-03-21T20:16:44.554Z,12.10
2023-03-21T20:19:14.811Z,11.80
2023-03-21T20:21:55.383Z,11.80
2023-03-21T20:24:30.889Z,11.80
2023-03-21T20:27:03.347Z,12.80
2023-03-21T20:30:07.949Z,13.90
2023-03-21T20:32:19.864Z,14.70
2023-03-21T20:34:50.452Z,12.40
2023-03-21T20:37:19.223Z,12.90
2023-03-21T20:39:47.182Z,13.60
2023-03-21T20:42:15.386Z,13.80
2023-03-21T20:45:00.597Z,14.60
2023-03-21T20:47:29.015Z,18.80
2023-03-21T20:49:57.026Z,20.70
2023-03-21T20:52:57.803Z,19.30
2023-03-21T20:55:14.416Z,20.70
2023-03-21T20:57:48.607Z,19.00
2023-03-21T21:00:17.670Z,19.40
2023-03-21T21:02:46.578Z,18.80
2023-03-21T21:05:34.356Z,19.30
2023-03-21T21:08:05.684Z,19.00
2023-03-21T21:10:35.057Z,17.70
2023-03-21T21:13:07.542Z,19.90
2023-03-21T21:15:35.603Z,18.70
2023-03-21T21:18:06.604Z,18.50
2023-03-21T21:20:36.934Z,19.50
2023-03-21T21:23:05.361Z,19.80
2023-03-21T21:25:33.624Z,18.90
2023-03-21T21:28:02.138Z,19.30
2023-03-21T21:30:31.661Z,20.30
2023-03-21T21:33:00.968Z,19.80
2023-03-21T21:35:29.160Z,22.10
2023-03-21T21:37:57.253Z,25.90
2023-03-21T21:40:25.631Z,22.00
2023-03-21T21:42:53.857Z,20.90
2023-03-21T21:45:22.008Z,23.20
2023-03-21T21:47:50.056Z,22.00
2023-03-21T21:50:18.907Z,21.50
2023-03-21T21:53:26.534Z,19.90
2023-03-21T21:55:56.722Z,21.50
2023-03-21T21:58:26.029Z,21.80
2023-03-21T22:00:54.451Z,19.50
2023-03-21T22:03:23.343Z,20.50
2023-03-21T22:05:52.372Z,21.40
2023-03-21T22:08:20.767Z,22.40
2023-03-21T22:10:49.015Z,21.90
2023-03-21T22:13:17.012Z,21.10
2023-03-21T22:15:46.198Z,20.60
2023-03-21T22:18:14.288Z,21.80
2023-03-21T22:20:42.366Z,23.50
2023-03-21T22:23:10.590Z,23.70
2023-03-21T22:25:38.876Z,24.60
2023-03-21T22:28:09.998Z,24.80
2023-03-21T22:30:38.178Z,26.80
2023-03-21T22:33:09.809Z,29.40
2023-03-21T22:35:38.154Z,30.20
2023-03-21T22:38:06.360Z,30.50
2023-03-21T22:40:34.750Z,30.40
2023-03-21T22:43:02.940Z,31.60
2023-03-21T22:45:30.968Z,31.80
2023-03-21T22:47:59.964Z,31.30
2023-03-21T22:50:28.730Z,31.40
2023-03-21T22:52:56.917Z,31.50
2023-03-21T22:55:24.899Z,31.30
2023-03-21T22:57:52.982Z,31.00
2023-03-21T23:00:20.950Z,32.70
2023-03-21T23:02:48.959Z,31.00
2023-03-21T23:05:17.016Z,31.70
2023-03-21T23:07:45.048Z,29.70
2023-03-21T23:10:13.089Z,29.60
2023-03-21T23:12:41.069Z,28.10
2023-03-21T23:15:09.675Z,28.20
2023-03-21T23:17:38.043Z,28.20
2023-03-21T23:20:07.858Z,28.50
2023-03-21T23:22:36.102Z,28.20
2023-03-21T23:25:04.448Z,29.30
2023-03-21T23:27:35.287Z,30.60
2023-03-21T23:30:05.000Z,27.90
2023-03-21T23:32:33.181Z,27.20
2023-03-21T23:35:01.252Z,30.10
2023-03-21T23:37:30.135Z,28.30
2023-03-21T23:39:58.193Z,28.80
2023-03-21T23:42:27.073Z,26.70
2023-03-21T23:44:56.161Z,26.50
2023-03-21T23:47:24.139Z,27.70
2023-03-21T23:49:52.825Z,28.60
2023-03-21T23:52:21.455Z,28.90
2023-03-21T23:54:49.510Z,28.00
2023-03-21T23:57:18.003Z,28.20
2023-03-21T23:59:47.062Z,25.20
